Willow View Heights, Pennsylvania
Current Conditions -  °F | °C
As of 6:53 PM on Saturday 25 Oct 2014 (Local Time) from KLNS Reporting Station
Broken Clouds Broken Clouds  
Wind Chill: 64°   Ceiling: 6500
Heat Index: 64°   Visibility: 10mi
Dew Point: 44°   Wind: 8mph
Humidity: 48%   Direction: 240°WSW
Pressure: 29.68"   Gusts: NA
Location:  40.0158°N, 76.2452°W
Report Text: KLNS 252253Z 24007KT 10SM BKN065 18/07 A2968 RMK AO2 SLP049 T01780067
Loading
Personal Weather Stations






























Interactive Weather Map
Tropical Storm Tracking
New forecast layout! Learn more

10-Day Weather Forecast

Advertisements
Track Severe Weather on mobile